Time;durP1;ratioP1;P1;durP2;ratioP2;P2;SDS_P1;SDS_P2;PMS_P1;PMS_P2;Temp;Humidity;BMP_temperature;BMP_pressure;BME280_temperature;BME280_humidity;BME280_pressure;Samples;Min_cycle;Max_cycle;Signal;HPM_P1;HPM_P2
2024/02/05 00:02:21;;;;;;;1.83;0.90;;;11.50;99.90;;;;;;5041835;28;20214;-61
2024/02/05 00:04:50;;;;;;;0.63;0.63;;;11.50;99.90;;;;;;5033487;28;20289;-61
2024/02/05 00:07:17;;;;;;;0.97;0.87;;;11.60;99.90;;;;;;5041736;28;20226;-61
2024/02/05 00:09:44;;;;;;;1.00;0.80;;;11.70;99.90;;;;;;5033561;28;20216;-61
2024/02/05 00:12:11;;;;;;;2.03;0.70;;;11.80;99.90;;;;;;5041785;28;20210;-59
2024/02/05 00:14:38;;;;;;;0.50;0.50;;;11.80;99.90;;;;;;5033351;28;20297;-60
2024/02/05 00:17:05;;;;;;;0.50;0.40;;;11.90;99.90;;;;;;5041319;28;20726;-60
2024/02/05 00:19:31;;;;;;;0.73;0.60;;;11.80;99.90;;;;;;5032908;28;20289;-60
2024/02/05 00:21:59;;;;;;;0.60;0.40;;;11.70;99.90;;;;;;5041597;28;20293;-60
2024/02/05 00:24:26;;;;;;;0.40;0.40;;;11.70;99.90;;;;;;5033103;28;20202;-58
2024/02/05 00:26:53;;;;;;;0.20;0.20;;;11.60;99.90;;;;;;5041356;28;20249;-60
2024/02/05 00:29:19;;;;;;;0.37;0.20;;;11.60;99.90;;;;;;5032783;28;20210;-59
2024/02/05 00:31:47;;;;;;;0.43;0.37;;;11.60;99.90;;;;;;5033086;28;22281;-61
2024/02/05 00:34:13;;;;;;;0.20;0.20;;;11.60;99.90;;;;;;5040676;28;20207;-61
2024/02/05 00:36:40;;;;;;;0.27;0.27;;;11.60;99.90;;;;;;5032826;28;20234;-60
2024/02/05 00:39:10;;;;;;;0.20;0.20;;;11.60;99.90;;;;;;5040852;28;20641;-60
2024/02/05 00:41:36;;;;;;;0.67;0.30;;;11.60;99.90;;;;;;5032764;28;20234;-60
2024/02/05 00:44:03;;;;;;;0.30;0.20;;;11.50;99.90;;;;;;5041140;28;20206;-60
2024/02/05 00:46:30;;;;;;;1.00;0.40;;;11.50;99.90;;;;;;5041121;28;20226;-60
2024/02/05 00:48:59;;;;;;;0.20;0.20;;;11.50;99.90;;;;;;5044098;28;20233;-60
2024/02/05 00:51:26;;;;;;;0.20;0.20;;;11.40;99.90;;;;;;5044727;28;20202;-60
2024/02/05 00:53:53;;;;;;;0.20;0.20;;;11.30;99.90;;;;;;5032934;28;20214;-60
2024/02/05 00:56:21;;;;;;;0.17;0.10;;;11.30;99.90;;;;;;5032403;28;20586;-60
2024/02/05 00:58:49;;;;;;;0.10;0.10;;;11.40;99.90;;;;;;5043116;28;20574;-60
2024/02/05 01:01:15;;;;;;;0.43;0.20;;;11.40;99.90;;;;;;5044027;28;20206;-60
2024/02/05 01:03:43;;;;;;;0.43;0.20;;;11.20;99.90;;;;;;5042113;28;20220;-59
2024/02/05 01:06:09;;;;;;;0.33;0.30;;;11.10;99.90;;;;;;5032494;28;20262;-60
2024/02/05 01:08:36;;;;;;;0.27;0.27;;;11.10;99.90;;;;;;5041736;28;20210;-59
2024/02/05 01:11:03;;;;;;;0.20;0.20;;;11.10;99.90;;;;;;5044036;28;20586;-60
2024/02/05 01:13:31;;;;;;;0.27;0.27;;;11.00;99.90;;;;;;5043440;28;20205;-60
2024/02/05 01:15:58;;;;;;;0.83;0.30;;;11.00;99.90;;;;;;5032083;28;20651;-61
2024/02/05 01:18:25;;;;;;;0.20;0.20;;;10.90;99.90;;;;;;5040238;28;20226;-61
2024/02/05 01:20:52;;;;;;;0.50;0.30;;;10.90;99.90;;;;;;5032499;28;20207;-61
2024/02/05 01:23:18;;;;;;;0.97;0.40;;;10.90;99.90;;;;;;5040374;28;20198;-60
2024/02/05 01:25:45;;;;;;;1.33;0.40;;;11.00;99.90;;;;;;5031933;28;20316;-61
2024/02/05 01:28:12;;;;;;;0.60;0.40;;;11.00;99.90;;;;;;5040003;28;20201;-61
2024/02/05 01:30:40;;;;;;;0.43;0.37;;;11.10;99.90;;;;;;5032333;28;20210;-61
2024/02/05 01:33:07;;;;;;;0.40;0.30;;;11.10;99.90;;;;;;5040300;28;20638;-60
2024/02/05 01:35:33;;;;;;;0.30;0.30;;;11.00;99.90;;;;;;5031603;28;20785;-60
2024/02/05 01:38:00;;;;;;;0.37;0.30;;;10.90;99.90;;;;;;5031614;28;20240;-61
2024/02/05 01:40:27;;;;;;;0.67;0.40;;;10.90;99.90;;;;;;5040223;28;20641;-60
2024/02/05 01:42:53;;;;;;;0.40;0.40;;;11.00;99.90;;;;;;5031802;28;20628;-61
2024/02/05 01:45:20;;;;;;;0.30;0.30;;;11.00;99.90;;;;;;5039873;28;20719;-61
2024/02/05 01:47:48;;;;;;;1.43;0.60;;;11.00;99.90;;;;;;5030780;28;20210;-61
2024/02/05 01:50:16;;;;;;;0.40;0.40;;;11.00;99.90;;;;;;5040253;28;20207;-59
2024/02/05 01:52:47;;;;;;;3.00;0.50;;;10.90;99.90;;;;;;5031483;28;20248;-61
2024/02/05 01:55:15;;;;;;;2.03;0.60;;;10.90;99.90;;;;;;5039874;28;20707;-61
2024/02/05 01:57:42;;;;;;;1.20;0.50;;;10.90;99.90;;;;;;5031064;28;20226;-61
2024/02/05 02:00:11;;;;;;;0.70;0.50;;;10.90;99.90;;;;;;5040059;28;20206;-61
2024/02/05 02:02:38;;;;;;;0.90;0.50;;;10.90;99.90;;;;;;5040932;28;20260;-60
2024/02/05 02:05:07;;;;;;;1.07;0.60;;;10.80;99.90;;;;;;5043161;28;20213;-60
2024/02/05 02:07:34;;;;;;;2.40;0.60;;;10.70;99.90;;;;;;5042216;28;20208;-61
2024/02/05 02:10:02;;;;;;;0.33;0.30;;;10.70;99.90;;;;;;5031426;28;20206;-61
2024/02/05 02:12:29;;;;;;;1.67;0.70;;;10.70;99.90;;;;;;5040065;28;20298;-61
2024/02/05 02:14:55;;;;;;;1.30;0.70;;;10.70;99.90;;;;;;5031533;28;20256;-60
2024/02/05 02:17:24;;;;;;;1.63;0.43;;;10.60;99.90;;;;;;5039496;28;20288;-61
2024/02/05 02:19:52;;;;;;;1.33;0.43;;;10.50;99.90;;;;;;5031247;28;20214;-60
2024/02/05 02:22:33;;;;;;;0.73;0.50;;;10.50;99.90;;;;;;5039618;28;20616;-61
2024/02/05 02:25:02;;;;;;;1.30;0.50;;;10.50;99.90;;;;;;5032127;28;20294;-61
2024/02/05 02:27:29;;;;;;;1.03;0.50;;;10.60;99.90;;;;;;5030987;28;20664;-61
2024/02/05 02:29:56;;;;;;;0.40;0.30;;;10.60;99.90;;;;;;5039484;28;20671;-61
2024/02/05 02:32:31;;;;;;;1.13;0.30;;;10.60;99.90;;;;;;5031290;28;20205;-60
2024/02/05 02:35:05;;;;;;;0.63;0.30;;;10.60;99.90;;;;;;5031560;28;20447;-61
2024/02/05 02:37:36;;;;;;;0.83;0.40;;;10.70;99.90;;;;;;5039459;28;20305;-61
2024/02/05 02:40:09;;;;;;;0.60;0.50;;;10.70;99.90;;;;;;5043001;28;20248;-61
2024/02/05 02:42:40;;;;;;;0.67;0.40;;;10.80;99.90;;;;;;5042090;28;20751;-61
2024/02/05 02:45:09;;;;;;;1.20;0.43;;;10.80;99.90;;;;;;5031102;28;20583;-61
2024/02/05 02:47:36;;;;;;;1.17;0.53;;;10.80;99.90;;;;;;5030896;28;20257;-60
2024/02/05 02:50:03;;;;;;;0.70;0.50;;;10.70;99.90;;;;;;5039307;28;20590;-60
2024/02/05 02:52:30;;;;;;;0.70;0.20;;;10.70;99.90;;;;;;5031232;28;20202;-60
2024/02/05 02:54:57;;;;;;;0.73;0.57;;;10.70;99.90;;;;;;5031240;28;20210;-60
2024/02/05 02:57:25;;;;;;;0.90;0.40;;;10.70;99.90;;;;;;5030940;28;20226;-60
2024/02/05 02:59:53;;;;;;;0.50;0.30;;;10.80;99.90;;;;;;5046240;28;20686;-61
2024/02/05 03:02:20;;;;;;;0.30;0.20;;;10.80;99.90;;;;;;5046599;28;20206;-61
2024/02/05 03:04:46;;;;;;;0.93;0.30;;;10.80;99.90;;;;;;5044215;28;20214;-60
2024/02/05 03:07:13;;;;;;;0.50;0.30;;;10.80;99.90;;;;;;5034694;28;20222;-60
2024/02/05 03:09:40;;;;;;;0.10;0.10;;;10.80;99.90;;;;;;5043775;28;20202;-60
2024/02/05 03:12:07;;;;;;;0.53;0.27;;;10.80;99.90;;;;;;5046109;28;20585;-59
2024/02/05 03:14:35;;;;;;;0.70;0.40;;;10.80;99.90;;;;;;5045617;28;20622;-60
2024/02/05 03:17:02;;;;;;;0.57;0.30;;;10.80;99.90;;;;;;5034622;28;20222;-61
2024/02/05 03:19:29;;;;;;;2.93;0.37;;;10.80;99.90;;;;;;5042484;28;20199;-59
2024/02/05 03:21:56;;;;;;;0.50;0.30;;;10.80;99.90;;;;;;5034406;28;20225;-61
2024/02/05 03:24:22;;;;;;;1.00;0.23;;;10.90;99.90;;;;;;5042668;28;20293;-61
2024/02/05 03:26:49;;;;;;;0.40;0.20;;;10.90;99.90;;;;;;5034102;28;20238;-61
2024/02/05 03:29:16;;;;;;;0.37;0.30;;;10.90;99.90;;;;;;5042137;28;20238;-60
2024/02/05 03:31:44;;;;;;;3.53;0.50;;;10.90;99.90;;;;;;5034298;28;20210;-61
2024/02/05 03:34:11;;;;;;;0.10;0.10;;;10.90;99.90;;;;;;5042354;28;20664;-61
2024/02/05 03:36:38;;;;;;;0.20;0.10;;;11.00;99.90;;;;;;5034039;28;20257;-61
2024/02/05 03:39:05;;;;;;;0.27;0.27;;;11.00;99.90;;;;;;5042155;28;20223;-61
2024/02/05 03:41:31;;;;;;;0.73;0.20;;;10.90;99.90;;;;;;5033969;28;20206;-60
2024/02/05 03:43:58;;;;;;;0.50;0.23;;;11.00;99.90;;;;;;5034227;28;20206;-61
2024/02/05 03:46:25;;;;;;;1.37;0.40;;;11.00;99.90;;;;;;5077334;22;20232;-60
2024/02/05 03:48:53;;;;;;;1.20;0.33;;;11.00;99.90;;;;;;5073393;28;20669;-60
2024/02/05 03:51:20;;;;;;;1.03;0.30;;;11.00;99.90;;;;;;5073971;28;20205;-60
2024/02/05 03:53:47;;;;;;;0.20;0.10;;;11.10;99.90;;;;;;5073697;28;20212;-61
2024/02/05 03:56:16;;;;;;;0.40;0.30;;;11.10;99.90;;;;;;5067882;28;20249;-60
2024/02/05 03:58:43;;;;;;;0.77;0.27;;;11.10;99.90;;;;;;5063131;28;20259;-60
2024/02/05 04:01:09;;;;;;;0.40;0.20;;;11.10;99.90;;;;;;5065533;28;20197;-60
2024/02/05 04:03:36;;;;;;;1.60;0.30;;;11.20;99.90;;;;;;5064841;28;20696;-61
2024/02/05 04:06:05;;;;;;;0.10;0.10;;;11.10;99.90;;;;;;5061987;28;20251;-60
2024/02/05 04:08:31;;;;;;;0.40;0.20;;;11.10;99.90;;;;;;5061648;28;20198;-61
2024/02/05 04:10:58;;;;;;;0.23;0.23;;;11.00;99.90;;;;;;5061083;28;20216;-61
2024/02/05 04:13:25;;;;;;;1.60;1.33;;;11.00;99.90;;;;;;5062100;28;20234;-61
2024/02/05 04:15:52;;;;;;;1.00;0.60;;;11.00;99.90;;;;;;5064237;28;20414;-61
2024/02/05 04:18:19;;;;;;;0.13;0.13;;;11.00;99.90;;;;;;5065050;28;20216;-60
2024/02/05 04:20:46;;;;;;;2.83;0.30;;;11.00;99.90;;;;;;5063038;28;20212;-59
2024/02/05 04:23:14;;;;;;;0.83;0.33;;;11.00;99.90;;;;;;5061491;28;20206;-60
2024/02/05 04:25:40;;;;;;;0.97;0.30;;;10.90;99.90;;;;;;5062426;28;20232;-60
2024/02/05 04:28:07;;;;;;;0.53;0.20;;;10.80;99.90;;;;;;5064945;28;20570;-60
2024/02/05 04:30:37;;;;;;;0.47;0.20;;;10.80;99.90;;;;;;5064937;28;20209;-61
2024/02/05 04:33:04;;;;;;;1.73;0.43;;;10.80;99.90;;;;;;5061463;28;20279;-60
2024/02/05 04:35:31;;;;;;;0.90;0.10;;;10.80;99.90;;;;;;5061283;28;20268;-60
2024/02/05 04:37:57;;;;;;;0.40;0.20;;;10.80;99.90;;;;;;5064434;28;20231;-60
2024/02/05 04:40:25;;;;;;;0.33;0.23;;;10.80;99.90;;;;;;5064859;28;20201;-60
2024/02/05 04:42:52;;;;;;;0.97;0.20;;;10.80;99.90;;;;;;5062110;28;20595;-60
2024/02/05 04:45:19;;;;;;;0.23;0.20;;;10.80;99.90;;;;;;5060939;28;20687;-60
2024/02/05 04:47:47;;;;;;;0.10;0.10;;;10.90;99.90;;;;;;5062629;28;20666;-60
2024/02/05 04:50:13;;;;;;;0.10;0.10;;;11.00;99.90;;;;;;5064513;28;20450;-59
2024/02/05 04:52:40;;;;;;;0.70;0.30;;;11.00;99.90;;;;;;5063999;28;20521;-60
2024/02/05 04:55:08;;;;;;;0.23;0.20;;;10.90;99.90;;;;;;5061272;28;20209;-60
2024/02/05 04:57:36;;;;;;;1.90;0.40;;;10.90;99.90;;;;;;5060892;28;20232;-59
2024/02/05 05:00:04;;;;;;;1.30;0.30;;;10.90;99.90;;;;;;5064637;28;20205;-61
2024/02/05 05:02:31;;;;;;;0.43;0.30;;;10.90;99.90;;;;;;5064479;28;20670;-59
2024/02/05 05:04:57;;;;;;;0.27;0.27;;;11.00;99.90;;;;;;5061338;28;20667;-60
2024/02/05 05:07:24;;;;;;;0.40;0.20;;;11.00;99.90;;;;;;5060525;28;20731;-60
2024/02/05 05:09:51;;;;;;;3.20;0.33;;;11.00;99.90;;;;;;5062903;28;20270;-60
2024/02/05 05:12:18;;;;;;;0.80;0.30;;;10.90;99.90;;;;;;5064433;28;20201;-60
2024/02/05 05:14:46;;;;;;;2.00;0.37;;;10.90;99.90;;;;;;5063096;28;20213;-63
2024/02/05 05:17:13;;;;;;;0.60;0.17;;;10.90;99.90;;;;;;5060672;28;20228;-61
2024/02/05 05:19:39;;;;;;;0.77;0.40;;;11.00;99.90;;;;;;5060634;28;20279;-60
2024/02/05 05:22:06;;;;;;;0.20;0.20;;;11.00;99.90;;;;;;5064162;28;20697;-61
2024/02/05 05:24:32;;;;;;;0.20;0.10;;;11.10;99.90;;;;;;5064226;28;20585;-61
2024/02/05 05:26:59;;;;;;;0.90;0.20;;;11.10;99.90;;;;;;5060545;28;20248;-59
2024/02/05 05:29:26;;;;;;;0.67;0.30;;;11.10;99.90;;;;;;5060256;28;20201;-60
2024/02/05 05:31:54;;;;;;;0.63;0.33;;;11.20;99.90;;;;;;5062783;28;20292;-60
2024/02/05 05:34:21;;;;;;;0.57;0.43;;;11.20;99.90;;;;;;5063837;28;20250;-61
2024/02/05 05:36:47;;;;;;;3.70;0.73;;;11.20;99.90;;;;;;5062019;28;20602;-62
2024/02/05 05:39:14;;;;;;;2.20;0.60;;;11.30;99.90;;;;;;5060362;28;20221;-61
2024/02/05 05:41:41;;;;;;;1.27;0.80;;;11.30;99.90;;;;;;5061292;28;20217;-60
2024/02/05 05:44:08;;;;;;;0.60;0.50;;;11.30;99.90;;;;;;5064210;28;20226;-59
2024/02/05 05:46:35;;;;;;;4.43;0.70;;;11.20;99.90;;;;;;5063357;28;20286;-61
2024/02/05 05:49:03;;;;;;;2.60;0.90;;;11.20;99.90;;;;;;5051750;28;20281;-61
2024/02/05 05:51:30;;;;;;;1.40;0.80;;;11.20;99.90;;;;;;5060121;28;20679;-60
2024/02/05 05:53:56;;;;;;;1.17;0.37;;;11.10;99.90;;;;;;5062887;28;20619;-62
2024/02/05 05:56:23;;;;;;;0.97;0.63;;;11.10;99.90;;;;;;5063211;28;20216;-61
2024/02/05 05:58:52;;;;;;;1.27;0.50;;;11.10;99.90;;;;;;5060998;28;20217;-59
2024/02/05 06:01:19;;;;;;;1.33;0.57;;;11.10;99.90;;;;;;5059944;28;20247;-60
2024/02/05 06:03:45;;;;;;;1.93;0.57;;;11.10;99.90;;;;;;5061061;28;20213;-62
2024/02/05 06:06:13;;;;;;;1.20;0.80;;;11.20;99.90;;;;;;5063316;28;20228;-60
2024/02/05 06:08:40;;;;;;;1.47;1.03;;;11.10;99.90;;;;;;5062567;28;20201;-59
2024/02/05 06:11:07;;;;;;;3.47;1.40;;;11.10;99.90;;;;;;5059877;28;20197;-61
2024/02/05 06:13:33;;;;;;;1.70;1.10;;;11.00;99.90;;;;;;5059771;28;20205;-60
2024/02/05 06:16:00;;;;;;;6.17;3.30;;;11.00;99.90;;;;;;5062603;28;20247;-58
2024/02/05 06:18:27;;;;;;;1.37;0.60;;;10.90;99.90;;;;;;5063112;28;20262;-59
2024/02/05 06:20:53;;;;;;;1.20;0.87;;;10.90;99.90;;;;;;5060956;28;20240;-60
2024/02/05 06:23:21;;;;;;;1.33;0.60;;;11.00;99.90;;;;;;5059971;28;20205;-60
2024/02/05 06:25:48;;;;;;;0.57;0.50;;;11.00;99.90;;;;;;5061127;28;20504;-60
2024/02/05 06:28:15;;;;;;;0.87;0.50;;;10.90;99.90;;;;;;5062780;28;20278;-60
2024/02/05 06:30:47;;;;;;;2.07;1.03;;;11.00;99.90;;;;;;5062622;28;20213;-60
2024/02/05 06:33:14;;;;;;;1.90;1.33;;;11.00;99.90;;;;;;5061372;28;20731;-60
2024/02/05 06:35:41;;;;;;;2.43;0.77;;;10.90;99.90;;;;;;5064189;28;20229;-60
2024/02/05 06:38:07;;;;;;;1.93;0.67;;;10.90;99.90;;;;;;5066795;28;20702;-60
2024/02/05 06:40:35;;;;;;;3.70;1.40;;;11.00;99.90;;;;;;5067115;28;20235;-60
2024/02/05 06:43:02;;;;;;;2.40;0.87;;;11.10;99.90;;;;;;5063282;28;20236;-60
2024/02/05 06:45:29;;;;;;;2.37;1.30;;;11.00;99.90;;;;;;5063220;28;20202;-59
2024/02/05 06:47:58;;;;;;;1.20;0.80;;;11.00;99.90;;;;;;5065694;28;20213;-60
2024/02/05 06:50:24;;;;;;;1.87;1.20;;;10.90;99.90;;;;;;5066609;28;20237;-60
2024/02/05 06:52:51;;;;;;;4.20;2.37;;;10.80;99.90;;;;;;5064993;28;20216;-60
2024/02/05 06:55:18;;;;;;;2.43;1.00;;;10.80;99.90;;;;;;5063404;28;20256;-62
2024/02/05 06:57:46;;;;;;;9.97;8.10;;;10.80;99.90;;;;;;5064281;28;20497;-63
2024/02/05 07:00:13;;;;;;;4.67;3.53;;;10.70;99.90;;;;;;5066868;28;20217;-61
2024/02/05 07:02:40;;;;;;;1.80;1.47;;;10.70;99.90;;;;;;5066380;28;20212;-65
2024/02/05 07:05:09;;;;;;;1.43;1.23;;;10.70;99.90;;;;;;5063450;28;20202;-64
2024/02/05 07:07:36;;;;;;;1.83;1.23;;;10.70;99.90;;;;;;5062814;28;20233;-63
2024/02/05 07:10:03;;;;;;;1.90;1.20;;;10.60;99.90;;;;;;5066491;28;20201;-65
2024/02/05 07:12:30;;;;;;;2.27;1.20;;;10.70;99.90;;;;;;5066748;28;20221;-62
2024/02/05 07:14:58;;;;;;;3.27;1.10;;;10.60;99.90;;;;;;5063848;28;20598;-64
2024/02/05 07:17:31;;;;;;;4.00;1.90;;;10.60;99.90;;;;;;5062974;28;20225;-63
2024/02/05 07:19:59;;;;;;;2.13;1.17;;;10.60;99.90;;;;;;5065700;28;20222;-63
2024/02/05 07:22:26;;;;;;;3.83;1.33;;;10.60;99.90;;;;;;5066188;28;20254;-60
2024/02/05 07:24:53;;;;;;;1.43;0.97;;;10.50;99.90;;;;;;5064437;28;20212;-63
2024/02/05 07:27:22;;;;;;;2.13;1.07;;;10.50;99.90;;;;;;5062686;28;20707;-63
2024/02/05 07:29:49;;;;;;;2.57;1.70;;;10.60;99.90;;;;;;5063067;28;20209;-65
2024/02/05 07:32:17;;;;;;;1.57;1.10;;;10.60;99.90;;;;;;5062960;28;20235;-61
2024/02/05 07:34:44;;;;;;;3.20;1.83;;;10.70;99.90;;;;;;5063692;28;20206;-61
2024/02/05 07:37:10;;;;;;;1.77;1.17;;;10.70;99.90;;;;;;5065860;28;20220;-61
2024/02/05 07:39:37;;;;;;;4.57;2.90;;;10.60;99.90;;;;;;5066247;28;20225;-61
2024/02/05 07:42:04;;;;;;;2.10;1.60;;;10.60;99.90;;;;;;5062260;28;20251;-61
2024/02/05 07:44:31;;;;;;;2.97;1.20;;;10.70;99.90;;;;;;5061150;28;20289;-61
2024/02/05 07:46:57;;;;;;;1.73;1.03;;;10.70;99.90;;;;;;5064579;28;20234;-61
2024/02/05 07:49:26;;;;;;;1.17;0.90;;;10.80;99.90;;;;;;5065328;28;20580;-61
2024/02/05 07:51:55;;;;;;;1.00;0.90;;;10.90;99.90;;;;;;5063713;28;20641;-63
2024/02/05 07:54:24;;;;;;;1.53;1.23;;;11.00;99.90;;;;;;5062263;28;20267;-61
2024/02/05 07:56:51;;;;;;;2.77;1.10;;;11.10;99.90;;;;;;5063708;28;20299;-62
2024/02/05 07:59:17;;;;;;;0.97;0.77;;;11.00;99.90;;;;;;5065184;28;20217;-62
2024/02/05 08:01:44;;;;;;;2.60;0.70;;;11.00;99.90;;;;;;5064666;28;20220;-61
2024/02/05 08:04:11;;;;;;;1.43;0.70;;;11.00;99.90;;;;;;5061869;28;20725;-61
2024/02/05 08:06:39;;;;;;;3.37;0.97;;;11.00;99.90;;;;;;5061773;28;20225;-61
2024/02/05 08:09:06;;;;;;;1.03;0.80;;;11.00;99.90;;;;;;5053604;28;20198;-61
2024/02/05 08:11:32;;;;;;;1.27;0.80;;;11.10;99.90;;;;;;5061917;28;20205;-62
2024/02/05 08:13:59;;;;;;;1.07;0.67;;;11.20;99.90;;;;;;5064518;28;20209;-61
2024/02/05 08:16:26;;;;;;;1.20;0.80;;;11.20;99.90;;;;;;5065341;28;20220;-60
2024/02/05 08:18:52;;;;;;;1.77;0.80;;;11.20;99.90;;;;;;5062952;28;20729;-60
2024/02/05 08:21:19;;;;;;;2.50;0.97;;;11.30;99.90;;;;;;5061675;28;20248;-61
2024/02/05 08:23:50;;;;;;;3.03;1.20;;;11.40;99.90;;;;;;5062621;28;20381;-61
2024/02/05 08:26:17;;;;;;;1.10;1.00;;;11.60;99.90;;;;;;5065200;28;20274;-61
2024/02/05 08:28:44;;;;;;;1.73;1.27;;;11.70;99.90;;;;;;5064368;28;20231;-61
2024/02/05 08:31:11;;;;;;;3.17;1.20;;;11.80;99.90;;;;;;5061206;28;20201;-60
2024/02/05 08:33:37;;;;;;;1.90;0.67;;;12.00;99.90;;;;;;5061603;28;20205;-61
2024/02/05 08:36:05;;;;;;;2.03;0.90;;;12.10;99.90;;;;;;5064222;28;20584;-61
2024/02/05 08:38:31;;;;;;;2.30;1.13;;;12.30;99.90;;;;;;5064412;28;20212;-61
2024/02/05 08:41:00;;;;;;;0.80;0.53;;;12.40;99.90;;;;;;5062309;28;20209;-61
2024/02/05 08:43:26;;;;;;;2.13;0.90;;;12.40;99.90;;;;;;5060985;28;20613;-61
2024/02/05 08:45:53;;;;;;;1.30;0.70;;;12.40;99.90;;;;;;5062534;28;20295;-62
2024/02/05 08:48:20;;;;;;;1.47;0.67;;;12.50;99.90;;;;;;5064599;28;20201;-61
2024/02/05 08:50:46;;;;;;;1.03;0.60;;;12.40;99.90;;;;;;5063610;28;20701;-61
2024/02/05 08:53:15;;;;;;;1.13;0.80;;;12.50;99.90;;;;;;5060828;28;20689;-61
2024/02/05 08:55:41;;;;;;;0.70;0.67;;;12.60;99.90;;;;;;5060297;28;20249;-59
2024/02/05 08:58:09;;;;;;;1.53;0.83;;;12.70;99.90;;;;;;5063800;28;20613;-62
2024/02/05 09:00:36;;;;;;;3.10;0.77;;;12.80;99.90;;;;;;5064151;28;20224;-62
2024/02/05 09:03:03;;;;;;;2.17;0.90;;;12.80;99.90;;;;;;5061281;28;20212;-61
2024/02/05 09:05:30;;;;;;;1.07;0.70;;;12.80;99.90;;;;;;5060710;28;20251;-61
2024/02/05 09:07:56;;;;;;;2.20;0.90;;;13.00;99.90;;;;;;5062595;28;20214;-61
2024/02/05 09:10:23;;;;;;;2.27;0.77;;;13.10;99.90;;;;;;5064060;28;20275;-61
2024/02/05 09:12:50;;;;;;;2.20;0.90;;;13.10;99.90;;;;;;5062656;28;20295;-61
2024/02/05 09:15:19;;;;;;;4.40;0.93;;;13.20;99.90;;;;;;5060342;28;20205;-61
2024/02/05 09:17:45;;;;;;;2.03;1.00;;;13.20;99.90;;;;;;5060598;28;20289;-62
2024/02/05 09:20:12;;;;;;;2.37;0.90;;;13.30;99.90;;;;;;5064034;28;20217;-61
2024/02/05 09:22:45;;;;;;;1.90;0.97;;;13.50;99.90;;;;;;5063981;28;20212;-62
2024/02/05 09:25:12;;;;;;;1.57;0.80;;;13.60;99.90;;;;;;5060201;28;20209;-60
2024/02/05 09:27:39;;;;;;;3.33;0.90;;;13.70;99.90;;;;;;5060286;28;20209;-62
2024/02/05 09:30:07;;;;;;;4.57;1.03;;;13.70;99.90;;;;;;5063411;28;20205;-61
2024/02/05 09:32:35;;;;;;;1.87;1.10;;;13.70;99.90;;;;;;5063926;28;20220;-61
2024/02/05 09:35:03;;;;;;;2.20;0.80;;;13.80;99.90;;;;;;5060885;28;20206;-61
2024/02/05 09:37:30;;;;;;;3.10;1.50;;;13.80;99.90;;;;;;5059900;28;20247;-61
2024/02/05 09:39:56;;;;;;;1.07;0.70;;;14.00;99.90;;;;;;5062369;28;20225;-61
2024/02/05 09:42:23;;;;;;;2.20;0.97;;;14.00;99.90;;;;;;5063755;28;20197;-61
2024/02/05 09:44:51;;;;;;;2.83;0.93;;;14.10;99.90;;;;;;5062811;28;20212;-62
2024/02/05 09:47:19;;;;;;;2.47;1.00;;;14.20;99.90;;;;;;5060322;28;20228;-61
2024/02/05 09:49:48;;;;;;;1.20;0.73;;;14.20;99.90;;;;;;5060200;28;20201;-60
2024/02/05 09:52:16;;;;;;;1.70;0.90;;;14.30;99.90;;;;;;5063359;28;20288;-59
2024/02/05 09:54:43;;;;;;;4.40;1.00;;;14.40;99.90;;;;;;5063127;28;20254;-59
2024/02/05 09:57:11;;;;;;;4.07;0.70;;;14.40;99.90;;;;;;5052018;28;20230;-60
2024/02/05 09:59:39;;;;;;;0.87;0.63;;;14.60;99.90;;;;;;5059672;28;20225;-60
2024/02/05 10:02:08;;;;;;;1.27;0.70;;;14.70;99.90;;;;;;5063613;28;20197;-60
2024/02/05 10:04:39;;;;;;;1.23;0.70;;;14.90;99.90;;;;;;5064069;28;20255;-58
2024/02/05 10:07:12;;;;;;;1.23;0.80;;;15.10;99.90;;;;;;5059873;28;20221;-59
2024/02/05 10:09:40;;;;;;;3.33;0.90;;;15.30;99.90;;;;;;5059968;28;20205;-60
2024/02/05 10:12:09;;;;;;;3.00;0.90;;;15.60;99.90;;;;;;5062965;28;20666;-58
2024/02/05 10:14:37;;;;;;;1.67;0.88;;;15.80;99.90;;;;;;5063724;28;20670;-58
2024/02/05 10:17:04;;;;;;;2.05;1.33;;;15.90;99.90;;;;;;5063014;28;20233;-58
2024/02/05 10:19:33;;;;;;;2.60;0.77;;;15.80;99.90;;;;;;5059199;28;20499;-59
2024/02/05 10:21:59;;;;;;;1.43;0.80;;;15.70;99.90;;;;;;5061971;28;20556;-59
2024/02/05 10:24:28;;;;;;;1.97;0.77;;;15.60;99.90;;;;;;5063381;28;20205;-59
2024/02/05 10:26:54;;;;;;;6.10;1.00;;;15.40;99.90;;;;;;5057961;28;20316;-60
2024/02/05 10:29:22;;;;;;;2.60;1.17;;;15.50;99.90;;;;;;5058532;28;20216;-59
2024/02/05 10:31:50;;;;;;;2.87;1.23;;;15.50;99.90;;;;;;5060083;28;20209;-59
2024/02/05 10:34:19;;;;;;;1.50;0.80;;;15.40;99.90;;;;;;5063222;28;20205;-60
2024/02/05 10:36:46;;;;;;;2.70;1.30;;;15.20;99.90;;;;;;5062974;28;20225;-65
2024/02/05 10:39:19;;;;;;;2.92;1.42;;;15.00;99.90;;;;;;5059189;28;20694;-63
2024/02/05 10:41:47;;;;;;;4.57;1.40;;;14.80;99.90;;;;;;5059300;28;20627;-64
2024/02/05 10:44:13;;;;;;;3.60;0.90;;;14.70;99.90;;;;;;5063675;28;20292;-63
2024/02/05 10:46:40;;;;;;;1.97;1.00;;;14.70;99.90;;;;;;5062412;28;20267;-64
2024/02/05 10:49:08;;;;;;;1.80;0.80;;;14.60;99.90;;;;;;5059493;28;20202;-64
2024/02/05 10:51:37;;;;;;;6.83;4.27;;;14.60;99.90;;;;;;5059316;28;20240;-63
2024/02/05 10:54:05;;;;;;;4.10;1.10;;;14.50;99.90;;;;;;5061519;28;20301;-63
2024/02/05 10:56:32;;;;;;;3.17;1.03;;;14.40;99.90;;;;;;5062831;28;20224;-63
2024/02/05 10:59:03;;;;;;;4.90;1.40;;;14.30;99.90;;;;;;5060407;28;20205;-63
2024/02/05 11:01:36;;;;;;;16.00;7.37;;;14.20;99.90;;;;;;5059479;28;20308;-62
2024/02/05 11:04:05;;;;;;;3.27;1.60;;;14.20;99.90;;;;;;5061876;28;20214;-63
2024/02/05 11:06:35;;;;;;;2.07;1.03;;;14.30;99.90;;;;;;5053362;28;20230;-65
2024/02/05 11:09:04;;;;;;;5.87;1.33;;;14.50;99.90;;;;;;5048818;28;20248;-63
2024/02/05 11:11:32;;;;;;;3.53;1.00;;;14.50;99.90;;;;;;5050594;28;20202;-63
2024/02/05 11:14:08;;;;;;;3.60;0.90;;;14.50;99.90;;;;;;5050902;28;20217;-62
2024/02/05 11:16:37;;;;;;;1.97;1.10;;;14.50;99.90;;;;;;5051009;28;20251;-62
2024/02/05 11:19:05;;;;;;;2.27;1.03;;;14.50;99.90;;;;;;5051285;28;20260;-61
2024/02/05 11:21:42;;;;;;;3.40;1.20;;;14.50;99.90;;;;;;5054401;28;20229;-61
2024/02/05 11:24:11;;;;;;;3.27;1.37;;;14.60;99.90;;;;;;5053828;28;20209;-61
2024/02/05 11:26:39;;;;;;;3.47;1.37;;;14.60;99.90;;;;;;5054516;28;20308;-62
2024/02/05 11:29:07;;;;;;;5.57;1.03;;;14.60;99.90;;;;;;5053850;28;20637;-65
2024/02/05 11:31:38;;;;;;;5.10;1.23;;;14.60;99.90;;;;;;5054387;28;20202;-62
2024/02/05 11:34:07;;;;;;;5.43;1.53;;;14.70;99.90;;;;;;5054161;28;20209;-62
2024/02/05 11:36:35;;;;;;;4.77;1.47;;;14.70;99.90;;;;;;5053974;28;20619;-63
2024/02/05 11:39:03;;;;;;;3.77;1.23;;;14.70;99.90;;;;;;5053937;28;20304;-63
2024/02/05 11:41:30;;;;;;;4.37;1.47;;;14.70;99.90;;;;;;5053791;28;20650;-62
2024/02/05 11:44:11;;;;;;;3.20;2.10;;;14.80;99.90;;;;;;5054033;28;20209;-61
2024/02/05 11:46:38;;;;;;;6.27;1.93;;;14.90;99.90;;;;;;5053819;28;20241;-62
2024/02/05 11:49:05;;;;;;;5.33;2.77;;;15.00;99.90;;;;;;5053467;28;20305;-61
2024/02/05 11:51:32;;;;;;;3.43;1.53;;;15.00;99.90;;;;;;5054520;28;20286;-60
2024/02/05 11:53:59;;;;;;;6.60;1.90;;;15.10;99.90;;;;;;5053819;28;20214;-60
2024/02/05 11:56:26;;;;;;;3.73;1.20;;;15.20;99.90;;;;;;5054078;28;20227;-60
2024/02/05 11:58:53;;;;;;;3.83;1.53;;;15.30;99.90;;;;;;5054036;28;20725;-60
2024/02/05 12:01:22;;;;;;;5.43;1.37;;;15.40;99.90;;;;;;5054577;28;20225;-61
2024/02/05 12:03:50;;;;;;;4.83;1.60;;;15.50;99.90;;;;;;5053840;28;20597;-60
2024/02/05 12:06:17;;;;;;;3.03;1.37;;;15.60;99.90;;;;;;5053856;28;20236;-61
2024/02/05 12:08:46;;;;;;;3.22;1.50;;;15.70;99.90;;;;;;5053860;28;20214;-62
2024/02/05 12:11:13;;;;;;;4.85;1.35;;;15.70;99.90;;;;;;5045617;28;20210;-62
2024/02/05 12:13:40;;;;;;;5.85;1.25;;;15.60;99.90;;;;;;5053693;28;20224;-62
2024/02/05 12:16:11;;;;;;;3.50;1.47;;;15.50;99.90;;;;;;5053579;28;20746;-63
2024/02/05 12:18:39;;;;;;;6.15;1.90;;;15.50;99.90;;;;;;5053105;28;20221;-61
2024/02/05 12:21:07;;;;;;;3.80;2.07;;;15.50;99.90;;;;;;5053513;28;20317;-62
2024/02/05 12:23:35;;;;;;;4.67;1.23;;;15.50;99.90;;;;;;5053323;28;20293;-62
2024/02/05 12:26:02;;;;;;;6.00;1.30;;;15.60;99.90;;;;;;5053476;28;20234;-62
2024/02/05 12:28:29;;;;;;;4.25;1.40;;;15.70;99.90;;;;;;5053067;28;20259;-62
2024/02/05 12:30:57;;;;;;;2.97;1.20;;;15.70;99.90;;;;;;5051759;28;20687;-62
2024/02/05 12:33:25;;;;;;;3.63;1.60;;;15.80;99.90;;;;;;5053355;28;20227;-63
2024/02/05 12:36:02;;;;;;;4.28;1.20;;;15.80;99.90;;;;;;5053277;28;20260;-64
2024/02/05 12:38:30;;;;;;;3.80;1.50;;;16.00;99.90;;;;;;5053031;28;20201;-62
2024/02/05 12:40:57;;;;;;;4.82;1.60;;;16.00;99.90;;;;;;5052708;28;20233;-63
2024/02/05 12:43:26;;;;;;;5.18;1.50;;;16.10;99.90;;;;;;5052652;28;20300;-63
2024/02/05 12:45:53;;;;;;;5.25;1.70;;;16.10;99.90;;;;;;5052975;28;20244;-63
2024/02/05 12:48:22;;;;;;;4.50;1.50;;;16.00;99.90;;;;;;5052616;28;20217;-63
2024/02/05 12:50:50;;;;;;;3.60;1.50;;;16.10;99.90;;;;;;5052819;28;20205;-60